Time;durP1;ratioP1;P1;durP2;ratioP2;P2;SDS_P1;SDS_P2;PMS_P1;PMS_P2;Temp;Humidity;BMP_temperature;BMP_pressure;BME280_temperature;BME280_humidity;BME280_pressure;Samples;Min_cycle;Max_cycle;Signal;HPM_P1;HPM_P2
2021/07/11 00:02:21;;;;;;;3.88;1.27;;;16.80;99.90;;;;;;5030895;28;20029;-79
2021/07/11 00:04:46;;;;;;;5.93;1.48;;;16.80;99.90;;;;;;5029807;28;20056;-79
2021/07/11 00:07:14;;;;;;;6.28;1.80;;;16.80;99.90;;;;;;5030552;28;20459;-78
2021/07/11 00:09:41;;;;;;;3.97;1.50;;;16.80;99.90;;;;;;5029482;28;20431;-79
2021/07/11 00:12:07;;;;;;;7.30;1.50;;;16.80;99.90;;;;;;5029071;28;20025;-78
2021/07/11 00:14:33;;;;;;;5.95;2.22;;;16.70;99.90;;;;;;5023637;28;20125;-79
2021/07/11 00:16:59;;;;;;;5.20;1.33;;;16.80;99.90;;;;;;5022681;28;20034;-79
2021/07/11 00:19:24;;;;;;;3.65;1.60;;;16.80;99.90;;;;;;5030833;28;20045;-79
2021/07/11 00:21:50;;;;;;;4.25;1.67;;;16.80;99.90;;;;;;5031193;28;20574;-79
2021/07/11 00:24:16;;;;;;;5.13;1.63;;;16.90;99.90;;;;;;5030465;28;20037;-79
2021/07/11 00:26:41;;;;;;;3.85;1.77;;;16.80;99.90;;;;;;5031389;28;20026;-79
2021/07/11 00:29:07;;;;;;;4.07;1.00;;;16.70;99.90;;;;;;5031087;28;20678;-79
2021/07/11 00:31:32;;;;;;;3.25;1.17;;;16.70;99.90;;;;;;5029439;28;20029;-79
2021/07/11 00:33:58;;;;;;;5.22;1.50;;;16.80;99.90;;;;;;5030542;28;20046;-79
2021/07/11 00:36:24;;;;;;;4.47;1.73;;;16.80;99.90;;;;;;5028777;28;20040;-79
2021/07/11 00:38:49;;;;;;;3.08;1.55;;;16.70;99.90;;;;;;5029969;28;20034;-79
2021/07/11 00:41:15;;;;;;;3.85;1.25;;;16.80;99.90;;;;;;5028844;28;20037;-79
2021/07/11 00:43:41;;;;;;;4.88;1.27;;;16.80;99.90;;;;;;5029903;28;20839;-79
2021/07/11 00:46:06;;;;;;;5.28;1.70;;;16.90;99.90;;;;;;5029057;28;20499;-79
2021/07/11 00:48:32;;;;;;;3.17;1.58;;;16.90;99.90;;;;;;5030517;28;20107;-79
2021/07/11 00:50:58;;;;;;;5.10;1.60;;;16.90;99.90;;;;;;5028670;28;20026;-79
2021/07/11 00:53:23;;;;;;;3.90;1.60;;;16.90;99.90;;;;;;5029391;28;20116;-79
2021/07/11 00:55:51;;;;;;;5.03;1.60;;;16.80;99.90;;;;;;5029553;28;20557;-79
2021/07/11 00:58:17;;;;;;;4.85;1.45;;;16.80;99.90;;;;;;5030232;28;20159;-79
2021/07/11 01:00:59;;;;;;;6.50;1.63;;;16.70;99.90;;;;;;5029233;28;20108;-80
2021/07/11 01:03:35;;;;;;;4.32;1.63;;;16.60;99.90;;;;;;5029886;28;20390;-79
2021/07/11 01:06:03;;;;;;;4.38;1.30;;;16.60;99.90;;;;;;5028883;28;20037;-79
2021/07/11 01:08:43;;;;;;;4.53;1.42;;;16.60;99.90;;;;;;5029259;28;20085;-79
2021/07/11 01:11:11;;;;;;;8.73;1.92;;;16.70;99.90;;;;;;5028779;28;20109;-79
2021/07/11 01:13:38;;;;;;;7.85;2.40;;;16.70;99.90;;;;;;5029580;28;20040;-79
2021/07/11 01:16:08;;;;;;;10.98;1.60;;;16.70;99.90;;;;;;5028644;28;20033;-79
2021/07/11 01:18:38;;;;;;;4.82;1.58;;;16.60;99.90;;;;;;5029827;28;20387;-79
2021/07/11 01:21:08;;;;;;;3.45;1.52;;;16.70;99.90;;;;;;5028563;28;20026;-79
2021/07/11 01:23:57;;;;;;;4.35;1.25;;;16.70;99.90;;;;;;5029622;28;20037;-79
2021/07/11 01:26:24;;;;;;;8.60;1.75;;;16.70;99.90;;;;;;5028656;28;20037;-79
2021/07/11 01:28:52;;;;;;;6.13;1.27;;;16.70;99.90;;;;;;5029493;28;20029;-79
2021/07/11 01:31:20;;;;;;;3.80;1.60;;;16.60;99.90;;;;;;5028461;28;20071;-79
2021/07/11 01:33:46;;;;;;;6.30;1.85;;;16.50;99.90;;;;;;5029725;28;20040;-79
2021/07/11 01:36:13;;;;;;;8.07;2.00;;;16.50;99.90;;;;;;5028166;28;20034;-79
2021/07/11 01:38:41;;;;;;;4.97;1.40;;;16.40;99.90;;;;;;5029048;28;20077;-79
2021/07/11 01:41:10;;;;;;;7.45;1.80;;;16.50;99.90;;;;;;5028279;28;20383;-78
2021/07/11 01:43:37;;;;;;;4.45;1.73;;;16.50;99.90;;;;;;5029202;28;20053;-79
2021/07/11 01:46:06;;;;;;;3.42;1.73;;;16.50;99.90;;;;;;5028147;28;20033;-79
2021/07/11 01:48:33;;;;;;;4.63;1.65;;;16.50;99.90;;;;;;5029310;28;20490;-79
2021/07/11 01:50:59;;;;;;;5.93;1.98;;;16.50;99.90;;;;;;5028069;28;20071;-79
2021/07/11 01:53:28;;;;;;;7.82;1.70;;;16.50;99.90;;;;;;5032398;28;20164;-79
2021/07/11 01:55:54;;;;;;;5.82;1.60;;;16.60;99.90;;;;;;5032121;28;20049;-79
2021/07/11 01:58:21;;;;;;;6.95;1.50;;;16.50;99.90;;;;;;5030100;28;20787;-79
2021/07/11 02:00:48;;;;;;;5.82;2.10;;;16.50;99.90;;;;;;5027925;28;20033;-79
2021/07/11 02:03:16;;;;;;;7.47;2.13;;;16.50;99.90;;;;;;5033368;28;20167;-79
2021/07/11 02:05:41;;;;;;;4.03;1.30;;;16.50;99.90;;;;;;5031921;28;20036;-79
2021/07/11 02:08:07;;;;;;;5.07;1.40;;;16.50;99.90;;;;;;5032724;28;20029;-79
2021/07/11 02:10:33;;;;;;;10.60;1.70;;;16.50;99.90;;;;;;5031933;28;20068;-79
2021/07/11 02:13:06;;;;;;;6.85;1.90;;;16.50;99.90;;;;;;5032996;28;20049;-79
2021/07/11 02:15:32;;;;;;;6.95;2.20;;;16.50;99.90;;;;;;5031793;28;20026;-79
2021/07/11 02:18:00;;;;;;;4.43;1.73;;;16.40;99.90;;;;;;5032823;28;20096;-79
2021/07/11 02:20:27;;;;;;;5.30;1.77;;;16.40;99.90;;;;;;5031835;28;20027;-79
2021/07/11 02:22:54;;;;;;;4.97;1.88;;;16.40;99.90;;;;;;5032087;28;20034;-79
2021/07/11 02:25:21;;;;;;;4.93;1.77;;;16.40;99.90;;;;;;5031406;28;20494;-79
2021/07/11 02:27:50;;;;;;;5.38;2.13;;;16.40;99.90;;;;;;5032597;28;20116;-79
2021/07/11 02:30:18;;;;;;;5.75;2.38;;;16.40;99.90;;;;;;5031684;28;20203;-79
2021/07/11 02:32:48;;;;;;;6.57;1.77;;;16.40;99.90;;;;;;5032386;28;20033;-79
2021/07/11 02:35:15;;;;;;;4.40;1.70;;;16.40;99.90;;;;;;5030362;28;20470;-79
2021/07/11 02:37:50;;;;;;;4.00;1.70;;;16.40;99.90;;;;;;5032042;28;20470;-79
2021/07/11 02:40:16;;;;;;;5.20;1.73;;;16.30;99.90;;;;;;5031322;28;20021;-79
2021/07/11 02:42:43;;;;;;;5.45;1.48;;;16.40;99.90;;;;;;5031840;28;20108;-79
2021/07/11 02:45:09;;;;;;;7.55;1.80;;;16.40;99.90;;;;;;5032058;28;20034;-79
2021/07/11 02:47:39;;;;;;;5.38;1.90;;;16.40;99.90;;;;;;5031171;28;20045;-79
2021/07/11 02:50:07;;;;;;;3.67;1.65;;;16.30;99.90;;;;;;5022869;28;20050;-79
2021/07/11 02:52:35;;;;;;;5.05;2.33;;;16.30;99.90;;;;;;5029078;28;20490;-79
2021/07/11 02:55:07;;;;;;;8.43;1.80;;;16.30;99.90;;;;;;5031668;28;20068;-79
2021/07/11 02:57:34;;;;;;;6.90;1.85;;;16.20;99.90;;;;;;5030944;28;20037;-80
2021/07/11 03:00:00;;;;;;;8.68;2.13;;;16.30;99.90;;;;;;5014821;28;20061;-79
2021/07/11 03:02:28;;;;;;;8.00;1.92;;;16.20;99.90;;;;;;5029330;28;20068;-78
2021/07/11 03:04:55;;;;;;;4.30;1.50;;;16.10;99.90;;;;;;5031341;28;20033;-79
2021/07/11 03:07:21;;;;;;;6.63;1.60;;;16.20;99.90;;;;;;5031964;28;20770;-79
2021/07/11 03:09:47;;;;;;;3.78;1.33;;;16.10;99.90;;;;;;5030760;28;20031;-79
2021/07/11 03:12:15;;;;;;;4.68;1.13;;;16.10;99.90;;;;;;5030695;28;20038;-79
2021/07/11 03:14:40;;;;;;;6.80;1.35;;;16.10;99.90;;;;;;5031504;28;20029;-79
2021/07/11 03:17:07;;;;;;;6.53;1.63;;;16.00;99.90;;;;;;5030710;28;20042;-79
2021/07/11 03:19:39;;;;;;;3.20;1.30;;;16.10;99.90;;;;;;5032045;28;20353;-78
2021/07/11 03:22:05;;;;;;;5.97;2.03;;;16.10;99.90;;;;;;5030222;28;20067;-79
2021/07/11 03:24:32;;;;;;;11.88;2.10;;;16.20;99.90;;;;;;5031682;28;20049;-79
2021/07/11 03:26:58;;;;;;;7.00;2.22;;;16.20;99.90;;;;;;5030639;28;20040;-79
2021/07/11 03:29:37;;;;;;;9.18;2.25;;;16.10;99.90;;;;;;5031519;28;20760;-79
2021/07/11 03:32:04;;;;;;;7.40;1.98;;;16.10;99.90;;;;;;5030847;28;20021;-79
2021/07/11 03:34:32;;;;;;;5.07;2.15;;;16.00;99.90;;;;;;5031740;28;20104;-79
2021/07/11 03:37:04;;;;;;;4.57;1.65;;;16.00;99.90;;;;;;5030197;28;20474;-79
2021/07/11 03:39:37;;;;;;;4.22;1.60;;;16.00;99.90;;;;;;5031055;28;20033;-79
2021/07/11 03:42:04;;;;;;;5.85;2.15;;;16.00;99.90;;;;;;5030341;28;20055;-79
2021/07/11 03:44:33;;;;;;;7.65;2.03;;;16.00;99.90;;;;;;5030748;28;20099;-79
2021/07/11 03:47:01;;;;;;;6.32;2.30;;;16.10;99.90;;;;;;5029910;28;20025;-79
2021/07/11 03:49:28;;;;;;;6.28;2.70;;;16.00;99.90;;;;;;5031407;28;20021;-79
2021/07/11 03:52:00;;;;;;;5.28;1.75;;;16.10;99.90;;;;;;5029684;28;20052;-79
2021/07/11 03:54:27;;;;;;;2.53;1.13;;;16.10;99.90;;;;;;5031038;28;20021;-79
2021/07/11 03:56:53;;;;;;;3.55;1.77;;;16.10;99.90;;;;;;5030598;28;20590;-79
2021/07/11 03:59:21;;;;;;;4.60;2.38;;;16.10;99.90;;;;;;5029575;28;20379;-79
2021/07/11 04:01:49;;;;;;;5.72;1.95;;;16.10;99.90;;;;;;5030527;28;20030;-79
2021/07/11 04:04:18;;;;;;;7.47;1.90;;;16.00;99.90;;;;;;5030339;28;20121;-79
2021/07/11 04:06:47;;;;;;;8.20;1.67;;;16.00;99.90;;;;;;5030239;28;20034;-79
2021/07/11 04:09:20;;;;;;;5.35;1.48;;;16.10;99.90;;;;;;5030127;28;20029;-79
2021/07/11 04:11:46;;;;;;;11.15;1.98;;;16.10;99.90;;;;;;5020351;28;20057;-79
2021/07/11 04:14:20;;;;;;;5.20;2.15;;;16.10;99.90;;;;;;5012164;28;20026;-79
2021/07/11 04:16:58;;;;;;;4.90;1.63;;;16.00;99.90;;;;;;5030586;28;20037;-79
2021/07/11 04:19:26;;;;;;;8.15;1.15;;;16.00;99.90;;;;;;5021212;28;20048;-79
2021/07/11 04:21:53;;;;;;;3.97;1.27;;;15.90;99.90;;;;;;5029143;28;20112;-79
2021/07/11 04:24:21;;;;;;;8.00;2.03;;;15.80;99.90;;;;;;5029483;28;20081;-79
2021/07/11 04:26:47;;;;;;;6.65;2.88;;;15.80;99.90;;;;;;5029994;28;20025;-79
2021/07/11 04:29:14;;;;;;;6.22;3.33;;;15.70;99.90;;;;;;5030230;28;20052;-79
2021/07/11 04:31:40;;;;;;;7.75;1.95;;;15.70;99.90;;;;;;5029265;28;20104;-79
2021/07/11 04:34:36;;;;;;;7.05;1.65;;;15.60;99.90;;;;;;5030475;28;20112;-79
2021/07/11 04:37:06;;;;;;;7.88;1.90;;;15.60;99.90;;;;;;5027864;28;20048;-79
2021/07/11 04:39:32;;;;;;;8.52;1.73;;;15.50;99.90;;;;;;5030044;28;20659;-79
2021/07/11 04:41:59;;;;;;;8.15;3.22;;;15.50;99.90;;;;;;5029088;28;20107;-79
2021/07/11 04:44:25;;;;;;;10.02;3.13;;;15.50;99.90;;;;;;5028957;28;20084;-79
2021/07/11 04:46:51;;;;;;;6.75;2.58;;;15.60;99.90;;;;;;5044181;28;20455;-79
2021/07/11 04:49:17;;;;;;;6.32;2.78;;;15.50;99.90;;;;;;5027445;28;20037;-80
2021/07/11 04:51:43;;;;;;;5.60;2.53;;;15.60;99.90;;;;;;5023290;28;20076;-79
2021/07/11 04:54:09;;;;;;;10.65;3.22;;;15.70;99.90;;;;;;5029732;28;20121;-79
2021/07/11 04:56:36;;;;;;;6.82;2.50;;;15.70;99.90;;;;;;5026838;28;20029;-79
2021/07/11 04:59:02;;;;;;;2.65;1.30;;;15.80;99.90;;;;;;5013270;28;20037;-79
2021/07/11 05:01:28;;;;;;;4.20;1.05;;;15.80;99.90;;;;;;5026420;28;20029;-79
2021/07/11 05:03:54;;;;;;;3.13;0.90;;;15.90;99.90;;;;;;5022668;28;20414;-79
2021/07/11 05:06:20;;;;;;;2.35;0.80;;;16.20;99.90;;;;;;5028181;28;20057;-79
2021/07/11 05:08:47;;;;;;;4.00;0.90;;;16.50;99.90;;;;;;5029322;28;20033;-79
2021/07/11 05:11:12;;;;;;;4.00;0.95;;;16.60;99.90;;;;;;5028900;28;20374;-79
2021/07/11 05:13:38;;;;;;;5.15;0.80;;;16.90;99.90;;;;;;5029543;28;20029;-79
2021/07/11 05:16:04;;;;;;;2.53;1.00;;;16.90;99.90;;;;;;5028280;28;20060;-79
2021/07/11 05:18:30;;;;;;;2.22;0.95;;;17.00;99.90;;;;;;5029002;28;20045;-79
2021/07/11 05:20:56;;;;;;;5.20;1.70;;;17.00;99.90;;;;;;5028390;28;20092;-79
2021/07/11 05:23:22;;;;;;;4.55;1.50;;;17.10;99.90;;;;;;5029065;28;20116;-79
2021/07/11 05:25:47;;;;;;;6.38;1.48;;;17.00;99.90;;;;;;5024544;28;20041;-79
2021/07/11 05:28:13;;;;;;;4.07;1.10;;;17.00;99.90;;;;;;5029112;28;20033;-79
2021/07/11 05:30:40;;;;;;;3.58;1.00;;;17.00;99.90;;;;;;5028544;28;20033;-79
2021/07/11 05:33:06;;;;;;;5.57;1.38;;;17.00;99.90;;;;;;5028877;28;20037;-79
2021/07/11 05:35:32;;;;;;;7.93;1.75;;;16.90;99.90;;;;;;5029461;28;20025;-79
2021/07/11 05:37:57;;;;;;;6.13;1.10;;;16.90;99.90;;;;;;5029237;28;20128;-79
2021/07/11 05:40:23;;;;;;;3.92;1.17;;;16.80;99.90;;;;;;5021730;28;20133;-78
2021/07/11 05:42:49;;;;;;;5.70;1.30;;;16.80;99.90;;;;;;5028807;28;20062;-79
2021/07/11 05:45:15;;;;;;;2.80;1.00;;;16.90;99.90;;;;;;5028016;28;20021;-79
2021/07/11 05:47:41;;;;;;;5.68;1.05;;;16.90;99.90;;;;;;5029046;28;20037;-79
2021/07/11 05:50:09;;;;;;;3.83;0.73;;;16.80;99.90;;;;;;5028352;28;20083;-79
2021/07/11 05:52:35;;;;;;;4.85;1.20;;;16.80;99.90;;;;;;5029172;28;20025;-79
2021/07/11 05:55:02;;;;;;;4.05;0.93;;;16.80;99.90;;;;;;5027998;28;20025;-79
2021/07/11 05:57:30;;;;;;;2.45;0.80;;;16.90;99.90;;;;;;5028187;28;20029;-79
2021/07/11 05:59:56;;;;;;;1.80;0.85;;;17.30;99.90;;;;;;5028810;28;20029;-79
2021/07/11 06:02:22;;;;;;;3.78;1.00;;;17.60;99.90;;;;;;5028604;28;20037;-79
2021/07/11 06:04:47;;;;;;;3.47;0.82;;;17.90;99.90;;;;;;5029065;28;20064;-79
2021/07/11 06:07:13;;;;;;;3.42;1.20;;;18.10;99.90;;;;;;5028489;28;20597;-79
2021/07/11 06:09:39;;;;;;;5.40;1.00;;;18.10;99.90;;;;;;5028126;28;20498;-79
2021/07/11 06:12:05;;;;;;;3.70;1.13;;;18.10;99.90;;;;;;5027903;28;20041;-79
2021/07/11 06:14:30;;;;;;;5.82;1.50;;;18.00;99.90;;;;;;5033430;28;20040;-79
2021/07/11 06:16:56;;;;;;;5.18;1.30;;;17.90;99.90;;;;;;5029945;28;20124;-79
2021/07/11 06:19:22;;;;;;;4.03;1.60;;;18.10;99.90;;;;;;5032012;28;20038;-79
2021/07/11 06:21:49;;;;;;;3.35;1.30;;;18.10;99.90;;;;;;5034083;28;20071;-79
2021/07/11 06:24:16;;;;;;;4.07;1.60;;;18.10;99.90;;;;;;5037071;28;20116;-79
2021/07/11 06:26:42;;;;;;;3.25;1.70;;;18.10;99.90;;;;;;5040163;28;20069;-79
2021/07/11 06:29:08;;;;;;;6.18;1.77;;;18.10;99.90;;;;;;5039886;28;20025;-79
2021/07/11 06:31:34;;;;;;;7.05;1.90;;;18.00;99.90;;;;;;5041068;28;20079;-79
2021/07/11 06:34:00;;;;;;;8.70;1.90;;;18.00;99.90;;;;;;5034423;28;20026;-79
2021/07/11 06:36:26;;;;;;;5.70;1.65;;;18.00;99.90;;;;;;5020429;28;20065;-79
2021/07/11 06:38:52;;;;;;;3.00;1.60;;;17.90;99.90;;;;;;5037332;28;20037;-78
2021/07/11 06:41:17;;;;;;;9.57;2.42;;;18.00;99.90;;;;;;5032071;28;20072;-79
2021/07/11 06:43:43;;;;;;;6.38;2.35;;;18.00;99.90;;;;;;5037304;28;20057;-79
2021/07/11 06:46:09;;;;;;;3.92;1.70;;;18.20;99.90;;;;;;5041060;28;20025;-79
2021/07/11 06:48:36;;;;;;;3.15;1.70;;;18.60;99.90;;;;;;5038800;28;20042;-79
2021/07/11 06:51:01;;;;;;;5.85;1.80;;;18.90;99.90;;;;;;5031436;28;20014;-79
2021/07/11 06:53:27;;;;;;;4.53;1.98;;;19.30;99.90;;;;;;5044382;28;20041;-79
2021/07/11 06:55:53;;;;;;;4.22;1.98;;;19.80;99.90;;;;;;5026980;28;20546;-79
2021/07/11 06:58:18;;;;;;;9.90;2.63;;;20.00;99.90;;;;;;5033990;28;20042;-79
2021/07/11 07:00:44;;;;;;;5.03;1.65;;;20.10;99.90;;;;;;5024602;28;20693;-79
2021/07/11 07:03:10;;;;;;;3.75;1.40;;;20.20;99.90;;;;;;5038873;28;20033;-79
2021/07/11 07:05:35;;;;;;;4.40;1.20;;;20.00;99.90;;;;;;5036878;28;20036;-79
2021/07/11 07:08:01;;;;;;;3.65;1.20;;;19.90;99.90;;;;;;5033566;28;20041;-78
2021/07/11 07:10:26;;;;;;;6.65;1.15;;;19.70;99.90;;;;;;5032547;28;20022;-79
2021/07/11 07:12:52;;;;;;;7.75;1.40;;;20.20;99.90;;;;;;5044097;28;20032;-79
2021/07/11 07:15:18;;;;;;;7.03;1.30;;;20.30;99.90;;;;;;5031729;28;20079;-78
2021/07/11 07:17:44;;;;;;;5.57;1.30;;;20.50;99.90;;;;;;5037098;28;20029;-79
2021/07/11 07:20:11;;;;;;;3.47;1.40;;;21.10;99.90;;;;;;5028404;28;20105;-79
2021/07/11 07:22:37;;;;;;;2.15;1.38;;;20.90;99.90;;;;;;5031096;28;20423;-78
2021/07/11 07:25:08;;;;;;;3.72;1.10;;;20.80;99.90;;;;;;5019448;28;20108;-79
2021/07/11 07:27:34;;;;;;;3.20;1.25;;;20.80;99.90;;;;;;5030119;28;20613;-79
2021/07/11 07:30:00;;;;;;;5.68;1.60;;;20.90;99.90;;;;;;5015601;28;20037;-79
2021/07/11 07:32:25;;;;;;;3.42;1.38;;;20.90;99.90;;;;;;5032198;28;20021;-79
2021/07/11 07:34:51;;;;;;;2.33;1.17;;;20.80;99.90;;;;;;5023018;28;20022;-79
2021/07/11 07:37:17;;;;;;;4.95;1.30;;;21.30;99.90;;;;;;5036957;28;20034;-79
2021/07/11 07:39:42;;;;;;;3.15;1.50;;;21.00;99.90;;;;;;5018829;28;20391;-80
2021/07/11 07:42:08;;;;;;;3.08;1.45;;;21.20;99.90;;;;;;5031205;28;20037;-79
2021/07/11 07:44:34;;;;;;;2.33;1.35;;;21.20;99.90;;;;;;5027302;28;20084;-79
2021/07/11 07:46:59;;;;;;;2.50;1.40;;;21.50;99.90;;;;;;5026985;28;20048;-79
2021/07/11 07:49:25;;;;;;;2.22;1.30;;;21.30;99.90;;;;;;5040414;28;20033;-79
2021/07/11 07:51:51;;;;;;;3.08;1.83;;;21.30;99.90;;;;;;5034014;28;20446;-79
2021/07/11 07:54:17;;;;;;;5.05;1.23;;;21.90;99.90;;;;;;5033776;28;20471;-79
2021/07/11 07:56:43;;;;;;;5.78;1.50;;;22.00;99.90;;;;;;5037408;28;20033;-79
2021/07/11 07:59:08;;;;;;;2.78;1.20;;;22.10;99.90;;;;;;5019115;28;20030;-79
2021/07/11 08:01:34;;;;;;;5.28;1.30;;;22.40;99.90;;;;;;5033339;28;20037;-79
2021/07/11 08:04:03;;;;;;;2.50;1.05;;;22.20;99.90;;;;;;5029762;28;20437;-79
2021/07/11 08:06:29;;;;;;;2.58;1.25;;;21.80;99.90;;;;;;5027921;28;20087;-79
2021/07/11 08:08:55;;;;;;;3.55;1.10;;;22.00;99.90;;;;;;5033294;28;20030;-79
2021/07/11 08:11:20;;;;;;;2.40;0.90;;;21.90;99.90;;;;;;5029175;28;20026;-80
2021/07/11 08:13:46;;;;;;;2.22;1.10;;;22.10;99.90;;;;;;5018934;28;20030;-79
2021/07/11 08:16:12;;;;;;;2.00;1.20;;;22.30;99.90;;;;;;5021785;28;20417;-79
2021/07/11 08:18:37;;;;;;;2.13;0.93;;;22.40;99.90;;;;;;5044001;28;20037;-79
2021/07/11 08:21:03;;;;;;;3.63;1.00;;;22.30;99.90;;;;;;5034315;28;20052;-78
2021/07/11 08:23:29;;;;;;;2.22;0.90;;;22.40;99.90;;;;;;5026292;28;20588;-79
2021/07/11 08:25:54;;;;;;;2.13;1.05;;;22.50;99.90;;;;;;5027970;28;20033;-79
2021/07/11 08:28:20;;;;;;;2.85;0.85;;;22.70;99.90;;;;;;5033060;28;20111;-79
2021/07/11 08:30:46;;;;;;;4.38;1.55;;;23.10;99.90;;;;;;5029366;28;20035;-79
2021/07/11 08:33:11;;;;;;;3.65;0.95;;;22.60;99.90;;;;;;5046369;28;20110;-79
2021/07/11 08:35:37;;;;;;;3.38;1.10;;;22.70;99.90;;;;;;5031076;28;20021;-79
2021/07/11 08:38:03;;;;;;;2.20;1.00;;;23.00;99.90;;;;;;5031770;28;20080;-79
2021/07/11 08:40:33;;;;;;;2.80;1.15;;;22.60;99.90;;;;;;5025991;28;20030;-79
2021/07/11 08:43:00;;;;;;;3.80;1.05;;;23.10;99.90;;;;;;5046398;28;20061;-79
2021/07/11 08:45:27;;;;;;;4.45;1.02;;;23.00;99.90;;;;;;5028844;28;20017;-79
2021/07/11 08:47:52;;;;;;;2.47;1.40;;;23.20;99.90;;;;;;5040951;28;20042;-79
2021/07/11 08:50:18;;;;;;;3.92;1.40;;;23.20;99.90;;;;;;5021571;28;20028;-79
2021/07/11 08:52:46;;;;;;;4.10;1.10;;;23.10;99.90;;;;;;5036306;28;20026;-79
2021/07/11 08:55:20;;;;;;;5.82;1.15;;;23.30;99.90;;;;;;5029119;28;20030;-79
2021/07/11 08:58:04;;;;;;;2.65;1.10;;;23.80;99.90;;;;;;5031192;28;20124;-79
2021/07/11 09:00:35;;;;;;;3.17;1.00;;;24.00;99.90;;;;;;5028177;28;20585;-80
2021/07/11 09:03:03;;;;;;;4.88;1.00;;;24.20;99.90;;;;;;5029175;28;20034;-79
2021/07/11 09:05:32;;;;;;;2.83;1.02;;;24.30;99.90;;;;;;5028960;28;20068;-79
2021/07/11 09:08:04;;;;;;;3.08;1.20;;;24.00;99.90;;;;;;5036051;28;20084;-79
2021/07/11 09:10:35;;;;;;;4.43;1.00;;;24.30;99.90;;;;;;5033124;28;20133;-79
2021/07/11 09:13:07;;;;;;;1.55;0.90;;;24.20;99.90;;;;;;5039599;28;20029;-79
2021/07/11 09:15:35;;;;;;;3.72;1.33;;;24.20;99.90;;;;;;5029676;28;20117;-80
2021/07/11 09:18:02;;;;;;;2.35;1.10;;;24.60;99.90;;;;;;5026686;28;20033;-79
2021/07/11 09:20:28;;;;;;;6.68;1.42;;;24.00;99.90;;;;;;5035379;28;20053;-79
2021/07/11 09:23:02;;;;;;;2.35;1.10;;;24.00;99.90;;;;;;5044991;28;20032;-79
2021/07/11 09:25:28;;;;;;;3.10;1.20;;;24.50;99.90;;;;;;5024632;28;20099;-79
2021/07/11 09:27:54;;;;;;;2.72;0.95;;;24.40;99.90;;;;;;5038471;28;20463;-79
2021/07/11 09:30:20;;;;;;;2.83;1.27;;;24.00;99.90;;;;;;5030780;28;20029;-79
2021/07/11 09:32:51;;;;;;;2.33;1.02;;;23.70;99.90;;;;;;5031877;28;20084;-79
2021/07/11 09:35:21;;;;;;;2.10;1.05;;;23.40;99.90;;;;;;5024290;28;20014;-79
2021/07/11 09:37:52;;;;;;;3.55;1.02;;;23.60;99.90;;;;;;5031269;28;20041;-79
2021/07/11 09:40:20;;;;;;;3.60;1.30;;;22.90;99.90;;;;;;5021156;28;20342;-79
2021/07/11 09:42:52;;;;;;;3.38;1.10;;;23.20;99.90;;;;;;5029488;28;20140;-79
2021/07/11 09:45:28;;;;;;;;;;;23.90;99.90;;;;;;5036487;28;20040;-79
2021/07/11 09:48:04;;;;;;;3.63;1.00;;;24.30;99.90;;;;;;5026290;28;19968;-79
2021/07/11 09:50:31;;;;;;;2.78;1.10;;;24.70;99.90;;;;;;5036968;28;20096;-79
2021/07/11 09:52:58;;;;;;;2.45;1.27;;;25.10;99.90;;;;;;5025096;28;20074;-79
2021/07/11 09:55:25;;;;;;;2.15;1.00;;;24.80;99.90;;;;;;5026414;28;20022;-79
2021/07/11 09:58:00;;;;;;;3.03;1.30;;;24.90;99.90;;;;;;5033415;28;20025;-79
2021/07/11 10:00:33;;;;;;;3.33;1.20;;;24.60;99.90;;;;;;5029757;28;20492;-79
2021/07/11 10:03:15;;;;;;;2.17;1.08;;;23.80;99.90;;;;;;5037738;28;20030;-79
2021/07/11 10:05:41;;;;;;;;;;;23.50;99.90;;;;;;5024658;28;20065;-79
2021/07/11 10:08:07;;;;;;;2.45;1.30;;;23.70;99.90;;;;;;5032724;28;20011;-80
2021/07/11 10:10:34;;;;;;;2.83;1.27;;;24.20;99.90;;;;;;5028604;28;20113;-79
2021/07/11 10:13:02;;;;;;;4.03;0.93;;;24.30;99.90;;;;;;5029773;28;20076;-79
2021/07/11 10:15:31;;;;;;;3.42;1.00;;;24.20;99.90;;;;;;5030424;28;20042;-79
2021/07/11 10:18:09;;;;;;;3.40;1.00;;;24.60;99.90;;;;;;5044869;28;20414;-79
2021/07/11 10:20:45;;;;;;;5.50;1.52;;;24.60;99.90;;;;;;5035980;28;20036;-79
2021/07/11 10:23:33;;;;;;;4.10;2.55;;;24.80;99.90;;;;;;5037058;28;20038;-79
2021/07/11 10:26:13;;;;;;;2.30;1.30;;;24.50;99.90;;;;;;5030897;28;20025;-79
2021/07/11 10:28:41;;;;;;;2.88;1.50;;;24.40;99.90;;;;;;5021850;28;20148;-79
2021/07/11 10:31:25;;;;;;;4.45;1.10;;;24.70;99.90;;;;;;5042863;28;20104;-79
2021/07/11 10:33:53;;;;;;;3.00;1.17;;;25.10;99.90;;;;;;5035357;28;20048;-79
2021/07/11 10:36:29;;;;;;;5.05;1.38;;;25.50;99.90;;;;;;5043503;28;20032;-79
2021/07/11 10:38:57;;;;;;;4.10;1.10;;;25.10;99.90;;;;;;5022462;28;20029;-79
2021/07/11 10:41:23;;;;;;;2.47;1.38;;;25.50;99.90;;;;;;5022872;28;20021;-79
2021/07/11 10:44:06;;;;;;;6.20;1.02;;;25.60;99.90;;;;;;5039943;28;20156;-79
2021/07/11 10:46:36;;;;;;;3.72;1.40;;;25.20;99.90;;;;;;5026991;28;20033;-79
2021/07/11 10:49:23;;;;;;;3.08;1.27;;;24.60;99.90;;;;;;5027567;28;20107;-79
2021/07/11 10:51:54;;;;;;;1.98;1.15;;;24.50;99.90;;;;;;5019938;28;20038;-79
2021/07/11 10:54:59;;;;;;;9.05;1.30;;;24.40;99.90;;;;;;5034918;28;20029;-79
2021/07/11 10:57:36;;;;;;;5.55;1.55;;;24.40;99.90;;;;;;5037945;28;21063;-79
2021/07/11 11:00:21;;;;;;;4.00;1.77;;;24.20;99.90;;;;;;5024349;28;20057;-79
2021/07/11 11:02:52;;;;;;;3.30;1.23;;;24.20;99.90;;;;;;5039524;28;20040;-79
2021/07/11 11:05:26;;;;;;;1.70;0.93;;;24.10;99.90;;;;;;5042362;28;20107;-79
2021/07/11 11:08:11;;;;;;;2.22;1.35;;;24.40;99.90;;;;;;5040385;28;20116;-79
2021/07/11 11:10:38;;;;;;;2.92;1.40;;;24.50;99.90;;;;;;5030866;28;20034;-79
2021/07/11 11:13:04;;;;;;;2.75;1.10;;;24.70;99.90;;;;;;5035114;28;20022;-79
2021/07/11 11:15:38;;;;;;;5.85;1.35;;;24.40;99.90;;;;;;5019164;28;20033;-79
2021/07/11 11:18:28;;;;;;;2.53;1.05;;;24.50;99.90;;;;;;5026450;28;20033;-79
2021/07/11 11:21:03;;;;;;;2.80;1.15;;;24.80;99.90;;;;;;5032991;28;20025;-79
2021/07/11 11:23:34;;;;;;;4.10;1.33;;;24.60;99.90;;;;;;5034104;28;20040;-79
2021/07/11 11:25:59;;;;;;;2.97;1.30;;;24.60;99.90;;;;;;5026632;28;20892;-79
2021/07/11 11:28:34;;;;;;;3.53;1.00;;;24.50;99.90;;;;;;5032402;28;20029;-79
2021/07/11 11:31:08;;;;;;;3.53;1.40;;;24.70;99.90;;;;;;5030829;28;20033;-79
2021/07/11 11:33:50;;;;;;;4.20;1.42;;;24.50;99.90;;;;;;5032053;28;20179;-79
2021/07/11 11:36:43;;;;;;;3.17;1.20;;;24.60;99.90;;;;;;5017661;28;20041;-79
2021/07/11 11:39:10;;;;;;;3.05;1.25;;;25.00;99.90;;;;;;5032312;28;20392;-79
2021/07/11 11:41:37;;;;;;;2.50;1.00;;;25.30;99.90;;;;;;5018814;28;20109;-79
2021/07/11 11:44:27;;;;;;;3.25;1.48;;;25.10;99.90;;;;;;5043871;28;20410;-79
2021/07/11 11:46:57;;;;;;;9.02;5.30;;;25.10;99.90;;;;;;5028875;28;20059;-79
2021/07/11 11:49:26;;;;;;;12.37;7.53;;;25.10;99.90;;;;;;5034064;28;20065;-79
2021/07/11 11:51:53;;;;;;;15.77;9.38;;;25.30;99.90;;;;;;5029302;28;20029;-79
2021/07/11 11:54:22;;;;;;;9.55;4.82;;;25.10;99.90;;;;;;5035654;28;20037;-79
2021/07/11 11:56:47;;;;;;;2.85;1.55;;;25.30;99.90;;;;;;5038653;28;20386;-79
2021/07/11 11:59:14;;;;;;;4.38;2.30;;;24.80;99.90;;;;;;5034045;28;20033;-79
2021/07/11 12:01:40;;;;;;;4.70;1.20;;;25.10;99.90;;;;;;5038177;28;20100;-79
2021/07/11 12:04:11;;;;;;;5.07;3.15;;;25.30;99.90;;;;;;5032689;28;20108;-79
2021/07/11 12:06:37;;;;;;;3.05;1.25;;;25.40;99.90;;;;;;5028754;28;20029;-79
2021/07/11 12:09:05;;;;;;;2.10;1.10;;;25.20;99.90;;;;;;5034685;28;20526;-79
2021/07/11 12:11:31;;;;;;;2.28;0.98;;;25.20;99.90;;;;;;5038017;28;20022;-79
2021/07/11 12:14:11;;;;;;;2.50;1.25;;;25.50;99.90;;;;;;5035922;28;20030;-79
2021/07/11 12:16:38;;;;;;;2.60;1.00;;;25.40;99.90;;;;;;5040141;28;20033;-79
2021/07/11 12:19:06;;;;;;;2.30;1.10;;;25.60;99.40;;;;;;5039657;28;20032;-79
2021/07/11 12:21:32;;;;;;;3.67;1.05;;;25.50;99.90;;;;;;5042636;28;20033;-79
2021/07/11 12:24:10;;;;;;;3.25;0.93;;;25.40;99.40;;;;;;5034186;28;20116;-79
2021/07/11 12:26:39;;;;;;;2.40;1.15;;;25.30;99.90;;;;;;5039557;28;20079;-79
2021/07/11 12:29:05;;;;;;;4.63;1.08;;;25.40;99.90;;;;;;5027944;28;20025;-79
2021/07/11 12:31:32;;;;;;;2.38;1.00;;;25.30;99.90;;;;;;5036569;28;20116;-79
2021/07/11 12:34:06;;;;;;;2.72;1.08;;;25.40;99.90;;;;;;5029649;28;20025;-79
2021/07/11 12:36:33;;;;;;;3.05;1.08;;;25.60;99.90;;;;;;5040121;28;20119;-79
2021/07/11 12:39:00;;;;;;;3.88;1.25;;;25.40;99.90;;;;;;5034361;28;20181;-79
2021/07/11 12:41:34;;;;;;;2.60;1.05;;;25.20;99.90;;;;;;5046564;28;20037;-79
2021/07/11 12:44:03;;;;;;;2.30;1.10;;;25.30;99.90;;;;;;5040447;28;20057;-79
2021/07/11 12:46:30;;;;;;;3.50;1.27;;;25.50;99.90;;;;;;5033754;28;20086;-79
2021/07/11 12:49:01;;;;;;;2.15;1.02;;;25.60;99.90;;;;;;5037808;28;20063;-79
2021/07/11 12:51:54;;;;;;;1.95;1.20;;;25.70;98.80;;;;;;5043395;28;20166;-79
2021/07/11 12:54:24;;;;;;;2.28;1.20;;;25.50;99.90;;;;;;5029476;28;20112;-79
2021/07/11 12:56:54;;;;;;;3.90;1.20;;;25.60;99.90;;;;;;5036851;28;20041;-79